»·PEaware :: OK-AS LKPR-UUWW

OK-AS :: LKPR-UUWW

FLIGHT INFORMATION

Flight Status: Arrived
Operator: Privately registered:
Czech Republic
More flights under this callsign
Pilot: Jan R. (5771)
Aircraft: BOMBARDIER BD-100 CHALLENGER 300
(CL30)
More flights by this aircraft type
Origin: LKPR Ruzyne
Czech Republic
Destination: UUWW Vnukovo
Russian Federation
More flights between these airports :: More routes between these airports
Route: Directly
File this flight plan on PilotEdge
Remarks: Sample flight plan
Altitude:
(Current/Filed)
30,000ft
Speed:
(Current/Filed)
300kts
Departed: 17-Dec-14 01:43 PM
Arrived: 17-Dec-14 05:49 PM
Distance/Time
Traveled:
892nm/4:06
Distance/Time
To Go:
Arrived

Flight Plot

Page will automatically refresh every two minutes.


Map Options




Map Legend


Flown Route
Filed Route
Departure Airport
Arrival Airport
Navaid (VOR, NDB)
Fix

Horizontal Profiles

Position Reports

Time Latitude Longitude Heading Altitude Ground
Speed
17-Dec-14 13:27 50.109650 14.268381 64 1253ft 0kts
17-Dec-14 13:28 50.109650 14.268381 64 1253ft 0kts
17-Dec-14 13:29 50.109650 14.268381 64 1253ft 0kts
17-Dec-14 13:30 50.109650 14.268381 64 1253ft 0kts
17-Dec-14 13:31 50.109635 14.268337 64 1253ft 1kts
17-Dec-14 13:32 50.109250 14.267273 354 1253ft 2kts
17-Dec-14 13:33 50.109238 14.267265 334 1253ft 0kts
17-Dec-14 13:34 50.109548 14.267091 345 1253ft 3kts
17-Dec-14 13:35 50.110396 14.266464 326 1253ft 5kts
17-Dec-14 13:36 50.110688 14.264803 279 1253ft 7kts
17-Dec-14 13:37 50.111306 14.263986 66 1253ft 11kts
17-Dec-14 13:38 50.112666 14.268575 65 1253ft 19kts
17-Dec-14 13:39 50.115111 14.273643 325 1253ft 17kts
17-Dec-14 13:40 50.114422 14.268317 243 1253ft 50kts
17-Dec-14 13:41 50.103780 14.232487 245 1958ft 142kts
17-Dec-14 13:42 50.088346 14.181624 244 3691ft 142kts
17-Dec-14 13:43 50.068875 14.115780 230 4979ft 245kts
17-Dec-14 13:44 49.998153 14.100646 180 5101ft 307kts
17-Dec-14 13:45 49.930699 14.126421 132 5329ft 319kts
17-Dec-14 13:46 49.892142 14.216397 106 6162ft 280kts
17-Dec-14 13:47 49.912123 14.309244 35 8140ft 281kts
17-Dec-14 13:48 49.976784 14.313758 344 10425ft 297kts
17-Dec-14 13:49 50.038315 14.296294 344 12325ft 333kts
17-Dec-14 13:50 50.112599 14.274806 344 14375ft 368kts
17-Dec-14 13:51 50.199026 14.249301 343 16550ft 397kts
17-Dec-14 13:52 50.295818 14.220365 343 18835ft 416kts
17-Dec-14 13:53 50.393436 14.242094 42 21058ft 443kts
17-Dec-14 13:54 50.416187 14.388563 118 22486ft 423kts
17-Dec-14 13:55 50.436328 14.540123 63 24000ft 470kts
17-Dec-14 13:56 50.489153 14.688206 63 25153ft 487kts
17-Dec-14 13:57 50.542185 14.836179 63 26403ft 494kts
17-Dec-14 13:58 50.591384 14.974074 63 27404ft 502kts
17-Dec-14 13:59 50.637952 15.105297 62 28352ft 505kts
17-Dec-14 14:00 50.685305 15.239173 62 29188ft 508kts
17-Dec-14 14:01 50.736645 15.385310 62 30440ft 499kts
17-Dec-14 14:02 50.773713 15.492389 63 31607ft 487kts
17-Dec-14 14:03 50.819989 15.626250 63 33102ft 473kts
17-Dec-14 14:04 50.859868 15.741545 63 34423ft 464kts
17-Dec-14 14:05 50.917597 15.909374 63 34822ft 486kts
17-Dec-14 14:06 50.957557 16.026143 63 34824ft 506kts
17-Dec-14 14:07 51.018438 16.204986 63 34819ft 496kts
17-Dec-14 14:08 51.061193 16.331448 63 34809ft 469kts
17-Dec-14 14:09 51.115046 16.492818 64 34813ft 441kts
17-Dec-14 14:10 51.153359 16.608118 64 34817ft 440kts
17-Dec-14 14:11 51.197869 16.742001 64 34818ft 444kts
17-Dec-14 14:12 51.242802 16.877792 64 34818ft 449kts
17-Dec-14 14:13 51.290041 17.021354 63 34818ft 453kts
17-Dec-14 14:14 51.333141 17.153063 63 34817ft 456kts
17-Dec-14 14:15 51.378665 17.292942 63 34817ft 459kts
17-Dec-14 14:16 51.423320 17.430983 64 34817ft 461kts
17-Dec-14 14:17 51.470752 17.580154 64 34818ft 463kts
17-Dec-14 14:18 51.511123 17.706462 64 34818ft 465kts
17-Dec-14 14:19 51.542074 17.803650 64 34818ft 465kts
17-Dec-14 14:20 51.586778 17.944686 64 34818ft 466kts
17-Dec-14 14:21 51.627295 18.073215 64 34818ft 467kts
17-Dec-14 14:22 51.664743 18.192461 64 34814ft 467kts
17-Dec-14 14:23 51.704198 18.318832 64 34814ft 468kts
17-Dec-14 14:24 51.738367 18.428928 65 34814ft 468kts
17-Dec-14 14:25 51.768057 18.526489 65 34814ft 468kts
17-Dec-14 14:26 51.799701 18.629584 65 34815ft 468kts
17-Dec-14 14:27 51.839311 18.758869 65 34815ft 468kts
17-Dec-14 14:28 51.874423 18.874014 65 34815ft 468kts
17-Dec-14 14:29 51.906828 18.980763 65 34815ft 468kts
17-Dec-14 14:30 51.937461 19.082103 65 34843ft 467kts
17-Dec-14 14:31 51.975390 19.208183 65 34843ft 466kts
17-Dec-14 14:32 52.010737 19.326279 65 34839ft 464kts
17-Dec-14 14:33 52.040742 19.427108 66 34836ft 462kts
17-Dec-14 14:34 52.074023 19.540983 66 34836ft 461kts
17-Dec-14 14:35 52.108003 19.656360 66 34836ft 460kts
17-Dec-14 14:36 52.147335 19.790332 66 34838ft 460kts
17-Dec-14 14:37 52.178474 19.896909 66 34839ft 460kts
17-Dec-14 14:38 52.202899 19.980838 66 34840ft 459kts
17-Dec-14 14:39 52.234210 20.088868 66 34841ft 459kts
17-Dec-14 14:40 52.263175 20.189242 66 34843ft 459kts
17-Dec-14 14:41 52.300698 20.319912 66 34845ft 459kts
17-Dec-14 14:42 52.339129 20.455352 67 34846ft 458kts
17-Dec-14 14:43 52.377178 20.590556 67 34846ft 458kts
17-Dec-14 14:44 52.413646 20.719841 67 34846ft 458kts
17-Dec-14 14:45 52.450974 20.852812 67 34846ft 458kts
17-Dec-14 14:46 52.491167 20.996831 67 34846ft 458kts
17-Dec-14 14:47 52.531624 21.142655 67 34876ft 458kts
17-Dec-14 14:48 52.569277 21.279264 67 34877ft 459kts
17-Dec-14 14:49 52.604171 21.406574 68 34877ft 461kts
17-Dec-14 14:50 52.634890 21.521051 68 34878ft 462kts
17-Dec-14 14:51 52.666664 21.638439 68 34873ft 463kts
17-Dec-14 14:52 52.701587 21.767869 68 34873ft 463kts
17-Dec-14 14:53 52.734835 21.891759 68 34873ft 464kts
17-Dec-14 14:54 52.763816 22.000295 68 34873ft 465kts
17-Dec-14 14:55 52.796191 22.122152 68 34874ft 465kts
17-Dec-14 14:56 52.827125 22.239197 68 34874ft 466kts
17-Dec-14 14:57 52.856125 22.349477 68 34874ft 466kts
17-Dec-14 14:58 52.883910 22.456701 69 34874ft 467kts
17-Dec-14 14:59 52.915825 22.580398 69 34874ft 467kts
17-Dec-14 15:00 52.947499 22.702836 69 34874ft 467kts
17-Dec-14 15:01 52.978825 22.824473 69 34875ft 468kts
17-Dec-14 15:02 53.011560 22.952276 69 34875ft 468kts
17-Dec-14 15:03 53.042938 23.075463 69 34875ft 468kts
17-Dec-14 15:04 53.078089 23.214279 69 34875ft 469kts
17-Dec-14 15:05 53.107473 23.330982 69 34876ft 469kts
17-Dec-14 15:06 53.134992 23.441681 70 34876ft 469kts
17-Dec-14 15:07 53.159959 23.543123 70 34875ft 469kts
17-Dec-14 15:08 53.185815 23.647566 69 34876ft 469kts
17-Dec-14 15:09 53.211415 23.751261 69 34876ft 469kts
17-Dec-14 15:10 53.244461 23.885798 69 34876ft 470kts
17-Dec-14 15:11 53.273669 24.005397 69 34876ft 470kts
17-Dec-14 15:12 53.303325 24.127501 69 34877ft 470kts
17-Dec-14 15:13 53.334234 24.255494 69 34877ft 470kts
17-Dec-14 15:14 53.373253 24.418518 71 34877ft 470kts
17-Dec-14 15:15 53.413262 24.588613 70 34877ft 470kts
17-Dec-14 15:16 53.453185 24.757775 70 34877ft 470kts
17-Dec-14 15:17 53.486511 24.899912 70 34878ft 471kts
17-Dec-14 15:18 53.532820 25.098996 70 34878ft 471kts
17-Dec-14 15:19 53.571968 25.268755 70 34878ft 471kts
17-Dec-14 15:20 53.603667 25.407374 72 34878ft 471kts
17-Dec-14 15:21 53.640801 25.573012 71 34876ft 471kts
17-Dec-14 15:22 53.678928 25.742241 71 34872ft 471kts
17-Dec-14 15:23 53.716968 25.912307 71 34873ft 470kts
17-Dec-14 15:24 53.754101 26.079618 71 34740ft 473kts
17-Dec-14 15:25 53.791682 26.250408 71 34726ft 475kts
17-Dec-14 15:26 53.827844 26.416595 73 34725ft 478kts
17-Dec-14 15:27 53.863791 26.584750 72 34726ft 482kts
17-Dec-14 15:28 53.900556 26.756083 72 34727ft 486kts
17-Dec-14 15:29 53.937245 26.928373 72 34729ft 489kts
17-Dec-14 15:30 53.973773 27.101359 72 34730ft 492kts
17-Dec-14 15:31 54.010314 27.275996 71 34778ft 493kts
17-Dec-14 15:32 54.045138 27.445213 71 34788ft 494kts
17-Dec-14 15:33 54.081019 27.620986 70 34787ft 494kts
17-Dec-14 15:34 54.117228 27.798535 70 34788ft 493kts
17-Dec-14 15:35 54.153029 27.975635 70 34787ft 486kts
17-Dec-14 15:36 54.188164 28.151014 70 34788ft 481kts
17-Dec-14 15:37 54.222507 28.323981 70 34788ft 477kts
17-Dec-14 15:38 54.255522 28.494000 71 34785ft 473kts
17-Dec-14 15:39 54.288850 28.665536 71 34786ft 470kts
17-Dec-14 15:40 54.322110 28.837603 71 34787ft 468kts
17-Dec-14 15:41 54.355162 29.010102 71 34788ft 466kts
17-Dec-14 15:42 54.387856 29.182288 71 34788ft 465kts
17-Dec-14 15:43 54.420085 29.353571 71 34789ft 463kts
17-Dec-14 15:44 54.450529 29.519484 72 34786ft 463kts
17-Dec-14 15:45 54.482005 29.690249 71 34787ft 462kts
17-Dec-14 15:46 54.513160 29.860411 71 34787ft 461kts
17-Dec-14 15:47 54.544114 30.031013 71 34788ft 461kts
17-Dec-14 15:48 54.575137 30.203602 71 34789ft 460kts
17-Dec-14 15:49 54.605709 30.375284 72 34788ft 460kts
17-Dec-14 15:50 54.636088 30.550534 72 34787ft 460kts
17-Dec-14 15:51 54.666311 30.724022 72 34786ft 460kts
17-Dec-14 15:52 54.696813 30.900401 72 34787ft 459kts
17-Dec-14 15:53 54.727309 31.078473 72 34788ft 459kts
17-Dec-14 15:54 54.757386 31.255881 72 34788ft 459kts
17-Dec-14 15:55 54.786000 31.427740 74 34786ft 459kts
17-Dec-14 15:56 54.814953 31.603936 73 34786ft 459kts
17-Dec-14 15:57 54.843288 31.776276 73 34787ft 459kts
17-Dec-14 15:58 54.871243 31.947909 73 34787ft 459kts
17-Dec-14 15:59 54.899561 32.123550 73 34788ft 459kts
17-Dec-14 16:00 54.927369 32.297815 73 34789ft 459kts
17-Dec-14 16:01 54.954298 32.470876 74 34786ft 460kts
17-Dec-14 16:02 54.981662 32.647044 74 34786ft 459kts
17-Dec-14 16:03 55.008716 32.822052 74 34787ft 459kts
17-Dec-14 16:04 55.035530 32.997321 74 34788ft 460kts
17-Dec-14 16:05 55.062215 33.173637 74 34788ft 460kts
17-Dec-14 16:06 55.089250 33.354245 74 34789ft 460kts
17-Dec-14 16:07 55.114849 33.530626 75 34786ft 460kts
17-Dec-14 16:08 55.140803 33.708353 75 34787ft 460kts
17-Dec-14 16:09 55.166283 33.884398 75 34787ft 460kts
17-Dec-14 16:10 55.191437 34.060141 75 34788ft 460kts
17-Dec-14 16:11 55.216537 34.237511 75 34789ft 460kts
17-Dec-14 16:12 55.240819 34.412411 76 34786ft 461kts
17-Dec-14 16:13 55.265313 34.592193 76 34786ft 461kts
17-Dec-14 16:14 55.290021 34.773192 76 34787ft 461kts
17-Dec-14 16:15 55.314510 34.954625 76 34788ft 461kts
17-Dec-14 16:16 55.338790 35.136727 76 34788ft 461kts
17-Dec-14 16:17 55.362887 35.319716 76 34789ft 461kts
17-Dec-14 16:18 55.385360 35.496054 77 34786ft 461kts
17-Dec-14 16:19 55.408432 35.676479 76 34787ft 461kts
17-Dec-14 16:20 55.431090 35.855144 76 34787ft 461kts
17-Dec-14 16:21 55.453523 36.034257 76 34788ft 461kts
17-Dec-14 16:22 55.475702 36.213642 76 34789ft 462kts
17-Dec-14 16:23 55.497012 36.388896 78 34787ft 462kts
17-Dec-14 16:24 55.515225 36.543543 77 34786ft 462kts
17-Dec-14 16:25 55.533454 36.696818 77 34787ft 462kts
17-Dec-14 16:26 55.551647 36.851198 77 34787ft 462kts
17-Dec-14 16:27 55.570058 37.009250 77 34788ft 462kts
17-Dec-14 16:28 55.586574 37.152101 79 34615ft 466kts
17-Dec-14 16:29 55.598584 37.257398 80 34615ft 466kts
17-Dec-14 16:30 55.613119 37.386857 82 34614ft 465kts
17-Dec-14 16:31 55.625596 37.501916 82 34614ft 464kts
17-Dec-14 16:32 55.637485 37.609834 82 34614ft 463kts
17-Dec-14 16:33 55.652211 37.744598 82 34606ft 461kts
17-Dec-14 16:34 55.671558 37.923013 82 34606ft 458kts
17-Dec-14 16:35 55.690663 38.101374 83 34634ft 453kts
17-Dec-14 16:36 55.708512 38.269830 84 34558ft 395kts
17-Dec-14 16:37 55.723158 38.412649 87 34439ft 341kts
17-Dec-14 16:38 55.735772 38.537247 88 33709ft 279kts
17-Dec-14 16:39 55.745300 38.630898 90 32686ft 236kts
17-Dec-14 16:40 55.753322 38.710458 92 31405ft 209kts
17-Dec-14 16:41 55.760374 38.783664 93 30481ft 198kts
17-Dec-14 16:42 55.767558 38.865283 94 30090ft 195kts
17-Dec-14 16:43 55.774460 38.949615 94 29703ft 194kts
17-Dec-14 16:44 55.780673 39.029466 95 29424ft 194kts
17-Dec-14 16:45 55.786719 39.109987 95 29311ft 193kts
17-Dec-14 16:46 55.792625 39.191606 95 29223ft 192kts
17-Dec-14 16:47 55.798793 39.276537 89 28994ft 211kts
17-Dec-14 16:48 55.814216 39.362127 79 28723ft 219kts
17-Dec-14 16:49 55.836969 39.450503 74 27727ft 227kts
17-Dec-14 16:50 55.860558 39.521989 71 27532ft 192kts
17-Dec-14 16:51 55.883742 39.584280 70 27433ft 187kts
17-Dec-14 16:52 55.902560 39.635252 70 27226ft 193kts
17-Dec-14 16:53 55.919646 39.682247 70 27162ft 192kts
17-Dec-14 16:54 55.943835 39.749853 70 27044ft 195kts
17-Dec-14 16:55 55.969233 39.823782 70 26433ft 228kts
17-Dec-14 16:56 55.999432 39.897404 54 26390ft 238kts
17-Dec-14 16:57 56.044698 39.959840 32 26125ft 261kts
17-Dec-14 16:58 56.097226 39.959062 335 26114ft 264kts
17-Dec-14 16:59 56.140920 39.900669 302 26082ft 251kts
17-Dec-14 17:00 56.163656 39.818875 272 26012ft 231kts
17-Dec-14 17:01 56.157888 39.732647 223 25798ft 197kts
17-Dec-14 17:02 56.122900 39.689672 193 25364ft 194kts
17-Dec-14 17:03 56.083883 39.658998 223 24958ft 218kts
17-Dec-14 17:04 56.053786 39.596759 216 24457ft 223kts
17-Dec-14 17:05 56.019735 39.536903 224 24132ft 227kts
17-Dec-14 17:06 55.997145 39.452836 233 23684ft 232kts
17-Dec-14 17:07 55.970823 39.365914 225 22967ft 231kts
17-Dec-14 17:08 55.943524 39.278399 238 22108ft 246kts
17-Dec-14 17:09 55.913606 39.159518 239 18222ft 374kts
17-Dec-14 17:10 55.879378 39.023008 245 16100ft 360kts
17-Dec-14 17:11 55.864589 38.898593 235 14012ft 272kts
17-Dec-14 17:12 55.838595 38.813255 235 13640ft 214kts
17-Dec-14 17:13 55.823850 38.736673 254 12247ft 203kts
17-Dec-14 17:14 55.815758 38.658135 249 10813ft 189kts
17-Dec-14 17:15 55.811743 38.627723 247 10228ft 185kts
17-Dec-14 17:16 55.810916 38.621859 247 10114ft 184kts
17-Dec-14 17:17 55.808152 38.602512 247 9733ft 182kts
17-Dec-14 17:18 55.805021 38.580914 247 9305ft 180kts
17-Dec-14 17:19 55.794493 38.509721 247 7867ft 176kts
17-Dec-14 17:20 55.783496 38.436803 248 6370ft 173kts
17-Dec-14 17:21 55.772716 38.366017 250 4922ft 182kts
17-Dec-14 17:22 55.764998 38.296146 263 4269ft 132kts
17-Dec-14 17:23 55.763677 38.237214 263 2563ft 136kts
17-Dec-14 17:24 55.766618 38.179922 263 2338ft 141kts
17-Dec-14 17:25 55.760094 38.126844 251 1946ft 143kts
17-Dec-14 17:26 55.754646 38.073262 255 1652ft 118kts
17-Dec-14 17:27 55.751452 38.018943 269 1628ft 176kts
17-Dec-14 17:28 55.755505 37.963057 284 2301ft 147kts
17-Dec-14 17:29 55.768517 37.896271 285 2236ft 163kts
17-Dec-14 17:30 55.777353 37.836070 277 2246ft 143kts
17-Dec-14 17:31 55.779603 37.780470 258 2234ft 130kts
17-Dec-14 17:32 55.774150 37.737250 244 2224ft 120kts
17-Dec-14 17:33 55.765370 37.697238 244 2223ft 111kts
17-Dec-14 17:34 55.756338 37.661726 236 2256ft 119kts
17-Dec-14 17:35 55.746092 37.631991 234 2246ft 133kts
17-Dec-14 17:36 55.733827 37.589355 245 2235ft 132kts
17-Dec-14 17:37 55.724116 37.539583 247 2160ft 135kts
17-Dec-14 17:38 55.715318 37.490590 247 1994ft 125kts
17-Dec-14 17:39 55.708834 37.453115 248 1984ft 114kts
17-Dec-14 17:40 55.700678 37.405626 248 2010ft 138kts
17-Dec-14 17:41 55.692311 37.355736 248 1964ft 115kts
17-Dec-14 17:42 55.678979 37.331365 206 1646ft 100kts
17-Dec-14 17:43 55.657800 37.312724 203 1120ft 99kts
17-Dec-14 17:44 55.636505 37.295813 202 850ft 106kts
17-Dec-14 17:45 55.618773 37.282704 202 775ft 102kts
17-Dec-14 17:46 55.604439 37.271277 201 691ft 39kts
17-Dec-14 17:47 55.599857 37.268060 212 691ft 17kts
17-Dec-14 17:48 55.599723 37.262279 301 691ft 21kts
17-Dec-14 17:49 55.603327 37.263725 22 691ft 28kts
17-Dec-14 17:50 55.607745 37.267105 26 691ft 5kts
17-Dec-14 17:51 55.607344 37.266432 111 692ft 12kts
17-Dec-14 17:52 55.607581 37.272437 81 692ft 14kts
17-Dec-14 17:53 55.606826 37.276487 159 692ft 10kts
17-Dec-14 17:54 55.606364 37.277865 56 691ft 3kts
17-Dec-14 17:55 55.606945 37.279116 71 691ft 6kts
17-Dec-14 17:56 55.607170 37.280838 134 691ft 5kts
17-Dec-14 17:57 55.606260 37.282852 105 691ft 8kts
17-Dec-14 17:58 55.606521 37.283709 43 691ft 0kts
17-Dec-14 17:59 55.606521 37.283709 43 691ft 0kts
17-Dec-14 18:00 55.606521 37.283709 43 691ft 0kts
17-Dec-14 18:01 55.606521 37.283709 43 691ft 0kts

Navigation Log

Ident Type
Flight plan parsing failed, navigation log unavailable